sensor_id;sensor_type;location;lat;lon;timestamp;P1;durP1;ratioP1;P2;durP2;ratioP2
36949;SDS011;22861;55.824;37.660;2022-07-03T00:01:46;5.95;;;3.55;;
36949;SDS011;22861;55.824;37.660;2022-07-03T00:04:12;6.68;;;3.17;;
36949;SDS011;22861;55.824;37.660;2022-07-03T00:06:37;6.63;;;3.40;;
36949;SDS011;22861;55.824;37.660;2022-07-03T00:09:04;6.28;;;3.92;;
36949;SDS011;22861;55.824;37.660;2022-07-03T00:11:31;7.18;;;3.78;;
36949;SDS011;22861;55.824;37.660;2022-07-03T00:13:57;9.25;;;3.92;;
36949;SDS011;22861;55.824;37.660;2022-07-03T00:16:22;9.82;;;4.85;;
36949;SDS011;22861;55.824;37.660;2022-07-03T00:18:48;7.18;;;4.18;;
36949;SDS011;22861;55.824;37.660;2022-07-03T00:21:16;7.90;;;4.35;;
36949;SDS011;22861;55.824;37.660;2022-07-03T00:24:07;9.68;;;4.50;;
36949;SDS011;22861;55.824;37.660;2022-07-03T00:26:38;6.28;;;4.28;;
36949;SDS011;22861;55.824;37.660;2022-07-03T00:29:06;8.32;;;4.25;;
36949;SDS011;22861;55.824;37.660;2022-07-03T00:31:34;10.70;;;5.00;;
36949;SDS011;22861;55.824;37.660;2022-07-03T00:34:00;9.38;;;4.90;;
36949;SDS011;22861;55.824;37.660;2022-07-03T00:36:29;11.10;;;4.40;;
36949;SDS011;22861;55.824;37.660;2022-07-03T00:38:59;10.38;;;4.00;;
36949;SDS011;22861;55.824;37.660;2022-07-03T00:41:25;9.90;;;4.55;;
36949;SDS011;22861;55.824;37.660;2022-07-03T00:43:52;9.55;;;4.55;;
36949;SDS011;22861;55.824;37.660;2022-07-03T00:46:18;8.27;;;4.55;;
36949;SDS011;22861;55.824;37.660;2022-07-03T00:48:47;10.03;;;4.20;;
36949;SDS011;22861;55.824;37.660;2022-07-03T00:51:15;6.45;;;4.25;;
36949;SDS011;22861;55.824;37.660;2022-07-03T00:53:50;13.98;;;4.20;;
36949;SDS011;22861;55.824;37.660;2022-07-03T00:56:19;8.75;;;4.38;;
36949;SDS011;22861;55.824;37.660;2022-07-03T00:58:49;9.73;;;4.82;;
36949;SDS011;22861;55.824;37.660;2022-07-03T01:01:18;8.25;;;4.38;;
36949;SDS011;22861;55.824;37.660;2022-07-03T01:03:44;10.57;;;4.70;;
36949;SDS011;22861;55.824;37.660;2022-07-03T01:06:13;11.45;;;4.72;;
36949;SDS011;22861;55.824;37.660;2022-07-03T01:08:43;8.63;;;4.43;;
36949;SDS011;22861;55.824;37.660;2022-07-03T01:11:56;8.85;;;4.95;;
36949;SDS011;22861;55.824;37.660;2022-07-03T01:16:57;9.45;;;5.05;;
36949;SDS011;22861;55.824;37.660;2022-07-03T01:30:44;6.55;;;4.40;;
36949;SDS011;22861;55.824;37.660;2022-07-03T01:38:32;8.93;;;4.40;;
36949;SDS011;22861;55.824;37.660;2022-07-03T01:40:58;8.27;;;4.68;;
36949;SDS011;22861;55.824;37.660;2022-07-03T01:43:29;9.40;;;4.63;;
36949;SDS011;22861;55.824;37.660;2022-07-03T01:45:56;8.10;;;4.78;;
36949;SDS011;22861;55.824;37.660;2022-07-03T01:48:25;9.27;;;5.07;;
36949;SDS011;22861;55.824;37.660;2022-07-03T01:50:51;8.15;;;4.47;;
36949;SDS011;22861;55.824;37.660;2022-07-03T01:53:17;11.38;;;4.70;;
36949;SDS011;22861;55.824;37.660;2022-07-03T01:55:43;8.27;;;4.47;;
36949;SDS011;22861;55.824;37.660;2022-07-03T01:58:11;10.55;;;4.95;;
36949;SDS011;22861;55.824;37.660;2022-07-03T02:00:41;7.80;;;4.15;;
36949;SDS011;22861;55.824;37.660;2022-07-03T02:03:11;8.10;;;4.53;;
36949;SDS011;22861;55.824;37.660;2022-07-03T02:05:52;9.73;;;3.92;;
36949;SDS011;22861;55.824;37.660;2022-07-03T02:08:44;6.53;;;4.20;;
36949;SDS011;22861;55.824;37.660;2022-07-03T02:11:18;6.97;;;4.10;;
36949;SDS011;22861;55.824;37.660;2022-07-03T02:19:09;6.47;;;3.88;;
36949;SDS011;22861;55.824;37.660;2022-07-03T02:21:39;6.65;;;4.13;;
36949;SDS011;22861;55.824;37.660;2022-07-03T02:24:18;7.22;;;3.95;;
36949;SDS011;22861;55.824;37.660;2022-07-03T02:26:46;7.40;;;3.83;;
36949;SDS011;22861;55.824;37.660;2022-07-03T02:29:26;6.65;;;3.80;;
36949;SDS011;22861;55.824;37.660;2022-07-03T02:31:57;5.68;;;4.40;;
36949;SDS011;22861;55.824;37.660;2022-07-03T02:34:25;7.60;;;3.83;;
36949;SDS011;22861;55.824;37.660;2022-07-03T02:36:55;6.50;;;3.70;;
36949;SDS011;22861;55.824;37.660;2022-07-03T02:39:32;5.22;;;3.88;;
36949;SDS011;22861;55.824;37.660;2022-07-03T02:42:08;5.72;;;3.90;;
36949;SDS011;22861;55.824;37.660;2022-07-03T02:44:46;9.50;;;4.15;;
36949;SDS011;22861;55.824;37.660;2022-07-03T02:50:15;10.38;;;4.78;;
36949;SDS011;22861;55.824;37.660;2022-07-03T02:55:42;8.07;;;3.88;;
36949;SDS011;22861;55.824;37.660;2022-07-03T03:01:15;8.82;;;4.00;;
36949;SDS011;22861;55.824;37.660;2022-07-03T03:06:54;7.53;;;4.30;;
36949;SDS011;22861;55.824;37.660;2022-07-03T03:09:40;5.60;;;3.97;;
36949;SDS011;22861;55.824;37.660;2022-07-03T03:12:07;7.10;;;3.58;;
36949;SDS011;22861;55.824;37.660;2022-07-03T03:14:44;6.55;;;3.92;;
36949;SDS011;22861;55.824;37.660;2022-07-03T03:17:17;8.18;;;3.72;;
36949;SDS011;22861;55.824;37.660;2022-07-03T03:19:51;8.50;;;3.90;;
36949;SDS011;22861;55.824;37.660;2022-07-03T03:25:11;5.30;;;3.90;;
36949;SDS011;22861;55.824;37.660;2022-07-03T03:27:37;5.55;;;3.80;;
36949;SDS011;22861;55.824;37.660;2022-07-03T03:30:03;6.85;;;4.03;;
36949;SDS011;22861;55.824;37.660;2022-07-03T03:32:31;8.38;;;4.13;;
36949;SDS011;22861;55.824;37.660;2022-07-03T03:35:00;7.47;;;4.30;;
36949;SDS011;22861;55.824;37.660;2022-07-03T03:37:26;6.47;;;4.00;;
36949;SDS011;22861;55.824;37.660;2022-07-03T03:39:52;10.93;;;4.30;;
36949;SDS011;22861;55.824;37.660;2022-07-03T03:42:18;5.80;;;4.32;;
36949;SDS011;22861;55.824;37.660;2022-07-03T03:44:43;10.88;;;4.00;;
36949;SDS011;22861;55.824;37.660;2022-07-03T03:47:09;8.13;;;4.63;;
36949;SDS011;22861;55.824;37.660;2022-07-03T03:49:34;6.15;;;4.50;;
36949;SDS011;22861;55.824;37.660;2022-07-03T03:52:01;8.05;;;4.10;;
36949;SDS011;22861;55.824;37.660;2022-07-03T03:54:27;7.55;;;4.22;;
36949;SDS011;22861;55.824;37.660;2022-07-03T03:56:52;7.85;;;3.97;;
36949;SDS011;22861;55.824;37.660;2022-07-03T03:59:18;8.48;;;4.40;;
36949;SDS011;22861;55.824;37.660;2022-07-03T04:01:43;6.35;;;4.13;;
36949;SDS011;22861;55.824;37.660;2022-07-03T04:04:11;6.60;;;4.07;;
36949;SDS011;22861;55.824;37.660;2022-07-03T04:06:37;9.82;;;4.40;;
36949;SDS011;22861;55.824;37.660;2022-07-03T04:09:04;7.97;;;4.05;;
36949;SDS011;22861;55.824;37.660;2022-07-03T04:11:29;8.52;;;4.07;;
36949;SDS011;22861;55.824;37.660;2022-07-03T04:13:54;7.50;;;3.88;;
36949;SDS011;22861;55.824;37.660;2022-07-03T04:16:20;6.57;;;4.30;;
36949;SDS011;22861;55.824;37.660;2022-07-03T04:18:46;6.80;;;4.05;;
36949;SDS011;22861;55.824;37.660;2022-07-03T04:21:11;10.68;;;4.28;;
36949;SDS011;22861;55.824;37.660;2022-07-03T04:23:37;5.55;;;4.47;;
36949;SDS011;22861;55.824;37.660;2022-07-03T04:26:03;11.43;;;4.28;;
36949;SDS011;22861;55.824;37.660;2022-07-03T04:28:30;6.82;;;4.50;;
36949;SDS011;22861;55.824;37.660;2022-07-03T04:30:55;6.80;;;4.38;;
36949;SDS011;22861;55.824;37.660;2022-07-03T04:33:21;7.60;;;4.55;;
36949;SDS011;22861;55.824;37.660;2022-07-03T04:35:46;8.07;;;4.38;;
36949;SDS011;22861;55.824;37.660;2022-07-03T04:38:12;13.65;;;4.82;;
36949;SDS011;22861;55.824;37.660;2022-07-03T04:40:37;6.88;;;4.35;;
36949;SDS011;22861;55.824;37.660;2022-07-03T04:43:03;5.93;;;4.32;;
36949;SDS011;22861;55.824;37.660;2022-07-03T04:45:28;7.80;;;4.60;;
36949;SDS011;22861;55.824;37.660;2022-07-03T04:47:54;6.03;;;4.55;;
36949;SDS011;22861;55.824;37.660;2022-07-03T04:50:19;9.43;;;4.65;;
36949;SDS011;22861;55.824;37.660;2022-07-03T04:52:45;8.13;;;4.75;;
36949;SDS011;22861;55.824;37.660;2022-07-03T04:55:11;6.95;;;4.85;;
36949;SDS011;22861;55.824;37.660;2022-07-03T04:57:37;5.20;;;4.13;;
36949;SDS011;22861;55.824;37.660;2022-07-03T05:00:03;8.38;;;4.43;;
36949;SDS011;22861;55.824;37.660;2022-07-03T05:02:29;6.88;;;4.78;;
36949;SDS011;22861;55.824;37.660;2022-07-03T05:04:55;8.35;;;4.35;;
36949;SDS011;22861;55.824;37.660;2022-07-03T05:07:20;8.50;;;4.43;;
36949;SDS011;22861;55.824;37.660;2022-07-03T05:09:46;7.55;;;4.32;;
36949;SDS011;22861;55.824;37.660;2022-07-03T05:12:11;7.35;;;4.50;;
36949;SDS011;22861;55.824;37.660;2022-07-03T05:14:37;8.32;;;4.68;;
36949;SDS011;22861;55.824;37.660;2022-07-03T05:17:02;8.48;;;4.53;;
36949;SDS011;22861;55.824;37.660;2022-07-03T05:19:28;8.52;;;4.78;;
36949;SDS011;22861;55.824;37.660;2022-07-03T05:21:53;6.97;;;4.40;;
36949;SDS011;22861;55.824;37.660;2022-07-03T05:24:19;7.43;;;4.05;;
36949;SDS011;22861;55.824;37.660;2022-07-03T05:26:44;6.43;;;4.55;;
36949;SDS011;22861;55.824;37.660;2022-07-03T05:29:10;6.07;;;4.18;;
36949;SDS011;22861;55.824;37.660;2022-07-03T05:31:35;6.13;;;4.35;;
36949;SDS011;22861;55.824;37.660;2022-07-03T05:34:01;8.57;;;4.93;;
36949;SDS011;22861;55.824;37.660;2022-07-03T05:36:26;5.93;;;4.35;;
36949;SDS011;22861;55.824;37.660;2022-07-03T05:38:52;6.97;;;4.30;;
36949;SDS011;22861;55.824;37.660;2022-07-03T05:41:36;7.75;;;4.65;;
36949;SDS011;22861;55.824;37.660;2022-07-03T05:44:01;8.25;;;5.05;;
36949;SDS011;22861;55.824;37.660;2022-07-03T05:46:27;6.57;;;4.20;;
36949;SDS011;22861;55.824;37.660;2022-07-03T05:48:52;6.45;;;4.90;;
36949;SDS011;22861;55.824;37.660;2022-07-03T05:51:18;7.88;;;4.85;;
36949;SDS011;22861;55.824;37.660;2022-07-03T05:53:43;7.03;;;4.50;;
36949;SDS011;22861;55.824;37.660;2022-07-03T05:56:09;6.15;;;4.93;;
36949;SDS011;22861;55.824;37.660;2022-07-03T05:58:34;7.30;;;4.75;;
36949;SDS011;22861;55.824;37.660;2022-07-03T06:01:00;8.73;;;5.00;;
36949;SDS011;22861;55.824;37.660;2022-07-03T06:03:25;8.40;;;5.10;;
36949;SDS011;22861;55.824;37.660;2022-07-03T06:05:51;7.40;;;4.80;;
36949;SDS011;22861;55.824;37.660;2022-07-03T06:08:17;7.95;;;4.93;;
36949;SDS011;22861;55.824;37.660;2022-07-03T06:10:42;9.38;;;5.00;;
36949;SDS011;22861;55.824;37.660;2022-07-03T06:13:08;8.32;;;4.47;;
36949;SDS011;22861;55.824;37.660;2022-07-03T06:15:33;7.78;;;4.57;;
36949;SDS011;22861;55.824;37.660;2022-07-03T06:17:59;8.38;;;4.50;;
36949;SDS011;22861;55.824;37.660;2022-07-03T06:20:24;8.07;;;4.70;;
36949;SDS011;22861;55.824;37.660;2022-07-03T06:22:50;7.88;;;4.97;;
36949;SDS011;22861;55.824;37.660;2022-07-03T06:25:15;7.70;;;4.75;;
36949;SDS011;22861;55.824;37.660;2022-07-03T06:27:41;10.82;;;5.53;;
36949;SDS011;22861;55.824;37.660;2022-07-03T06:30:08;9.23;;;4.68;;
36949;SDS011;22861;55.824;37.660;2022-07-03T06:32:34;7.95;;;5.03;;
36949;SDS011;22861;55.824;37.660;2022-07-03T06:34:59;7.70;;;4.88;;
36949;SDS011;22861;55.824;37.660;2022-07-03T06:37:25;7.60;;;5.03;;
36949;SDS011;22861;55.824;37.660;2022-07-03T06:39:50;9.23;;;5.43;;
36949;SDS011;22861;55.824;37.660;2022-07-03T06:42:16;9.73;;;5.13;;
36949;SDS011;22861;55.824;37.660;2022-07-03T06:44:41;8.70;;;4.70;;
36949;SDS011;22861;55.824;37.660;2022-07-03T06:47:07;5.78;;;5.03;;
36949;SDS011;22861;55.824;37.660;2022-07-03T06:49:33;6.90;;;4.40;;
36949;SDS011;22861;55.824;37.660;2022-07-03T06:51:59;8.95;;;4.70;;
36949;SDS011;22861;55.824;37.660;2022-07-03T06:54:24;10.98;;;5.25;;
36949;SDS011;22861;55.824;37.660;2022-07-03T06:56:50;6.95;;;5.10;;
36949;SDS011;22861;55.824;37.660;2022-07-03T06:59:16;8.45;;;4.90;;
36949;SDS011;22861;55.824;37.660;2022-07-03T07:01:41;7.57;;;4.90;;
36949;SDS011;22861;55.824;37.660;2022-07-03T07:04:07;8.40;;;5.60;;
36949;SDS011;22861;55.824;37.660;2022-07-03T07:06:32;11.15;;;5.30;;
36949;SDS011;22861;55.824;37.660;2022-07-03T07:08:58;9.93;;;4.72;;
36949;SDS011;22861;55.824;37.660;2022-07-03T07:11:24;7.25;;;4.70;;
36949;SDS011;22861;55.824;37.660;2022-07-03T07:13:49;5.78;;;4.60;;
36949;SDS011;22861;55.824;37.660;2022-07-03T07:16:15;7.78;;;5.07;;
36949;SDS011;22861;55.824;37.660;2022-07-03T07:18:41;7.20;;;4.55;;
36949;SDS011;22861;55.824;37.660;2022-07-03T07:21:07;8.07;;;4.88;;
36949;SDS011;22861;55.824;37.660;2022-07-03T07:23:34;6.47;;;4.30;;
36949;SDS011;22861;55.824;37.660;2022-07-03T07:25:59;9.32;;;4.90;;
36949;SDS011;22861;55.824;37.660;2022-07-03T07:28:25;8.68;;;4.30;;
36949;SDS011;22861;55.824;37.660;2022-07-03T07:30:50;7.40;;;4.60;;
36949;SDS011;22861;55.824;37.660;2022-07-03T07:33:20;6.60;;;3.70;;
36949;SDS011;22861;55.824;37.660;2022-07-03T07:35:46;6.53;;;4.03;;
36949;SDS011;22861;55.824;37.660;2022-07-03T07:38:12;8.93;;;4.80;;
36949;SDS011;22861;55.824;37.660;2022-07-03T07:40:37;6.75;;;4.45;;
36949;SDS011;22861;55.824;37.660;2022-07-03T07:43:03;8.32;;;4.45;;
36949;SDS011;22861;55.824;37.660;2022-07-03T07:45:28;6.10;;;4.20;;
36949;SDS011;22861;55.824;37.660;2022-07-03T07:47:54;6.78;;;4.20;;
36949;SDS011;22861;55.824;37.660;2022-07-03T07:50:19;7.38;;;4.57;;
36949;SDS011;22861;55.824;37.660;2022-07-03T07:52:45;6.40;;;4.40;;
36949;SDS011;22861;55.824;37.660;2022-07-03T07:55:11;5.93;;;4.70;;
36949;SDS011;22861;55.824;37.660;2022-07-03T07:57:37;6.53;;;4.15;;
36949;SDS011;22861;55.824;37.660;2022-07-03T08:00:10;7.32;;;4.57;;
36949;SDS011;22861;55.824;37.660;2022-07-03T08:02:38;5.00;;;4.03;;
36949;SDS011;22861;55.824;37.660;2022-07-03T08:05:23;7.32;;;4.07;;
36949;SDS011;22861;55.824;37.660;2022-07-03T08:08:14;5.13;;;4.10;;
36949;SDS011;22861;55.824;37.660;2022-07-03T08:10:45;4.55;;;4.03;;
36949;SDS011;22861;55.824;37.660;2022-07-03T08:13:13;5.88;;;4.50;;
36949;SDS011;22861;55.824;37.660;2022-07-03T08:15:40;7.43;;;4.00;;
36949;SDS011;22861;55.824;37.660;2022-07-03T08:18:07;4.85;;;3.88;;
36949;SDS011;22861;55.824;37.660;2022-07-03T08:20:33;8.18;;;4.22;;
36949;SDS011;22861;55.824;37.660;2022-07-03T08:22:59;8.00;;;4.30;;
36949;SDS011;22861;55.824;37.660;2022-07-03T08:25:25;5.88;;;3.97;;
36949;SDS011;22861;55.824;37.660;2022-07-03T08:27:50;6.35;;;3.90;;
36949;SDS011;22861;55.824;37.660;2022-07-03T08:30:16;6.13;;;4.20;;
36949;SDS011;22861;55.824;37.660;2022-07-03T08:32:46;5.15;;;3.90;;
36949;SDS011;22861;55.824;37.660;2022-07-03T08:35:13;5.80;;;4.25;;
36949;SDS011;22861;55.824;37.660;2022-07-03T08:37:39;5.18;;;3.97;;
36949;SDS011;22861;55.824;37.660;2022-07-03T08:40:09;7.90;;;4.07;;
36949;SDS011;22861;55.824;37.660;2022-07-03T08:42:41;4.68;;;3.78;;
36949;SDS011;22861;55.824;37.660;2022-07-03T08:45:13;6.93;;;4.25;;
36949;SDS011;22861;55.824;37.660;2022-07-03T08:47:42;4.68;;;3.60;;
36949;SDS011;22861;55.824;37.660;2022-07-03T08:50:09;4.55;;;3.10;;
36949;SDS011;22861;55.824;37.660;2022-07-03T08:52:37;4.78;;;3.63;;
36949;SDS011;22861;55.824;37.660;2022-07-03T08:55:03;6.00;;;3.35;;
36949;SDS011;22861;55.824;37.660;2022-07-03T08:57:30;4.10;;;3.70;;
36949;SDS011;22861;55.824;37.660;2022-07-03T08:59:58;4.97;;;3.97;;
36949;SDS011;22861;55.824;37.660;2022-07-03T09:02:30;3.95;;;3.30;;
36949;SDS011;22861;55.824;37.660;2022-07-03T09:05:00;6.07;;;3.58;;
36949;SDS011;22861;55.824;37.660;2022-07-03T09:07:36;7.22;;;3.75;;
36949;SDS011;22861;55.824;37.660;2022-07-03T09:10:03;6.57;;;3.80;;
36949;SDS011;22861;55.824;37.660;2022-07-03T09:12:30;5.57;;;3.58;;
36949;SDS011;22861;55.824;37.660;2022-07-03T09:14:57;5.13;;;3.70;;
36949;SDS011;22861;55.824;37.660;2022-07-03T09:17:23;5.85;;;3.80;;
36949;SDS011;22861;55.824;37.660;2022-07-03T09:19:49;5.60;;;3.70;;
36949;SDS011;22861;55.824;37.660;2022-07-03T09:22:27;5.38;;;3.78;;
36949;SDS011;22861;55.824;37.660;2022-07-03T09:25:02;4.32;;;3.50;;
36949;SDS011;22861;55.824;37.660;2022-07-03T09:27:33;4.53;;;3.10;;
36949;SDS011;22861;55.824;37.660;2022-07-03T09:30:00;5.60;;;3.40;;
36949;SDS011;22861;55.824;37.660;2022-07-03T09:32:51;4.72;;;3.38;;
36949;SDS011;22861;55.824;37.660;2022-07-03T09:40:23;5.22;;;3.60;;
36949;SDS011;22861;55.824;37.660;2022-07-03T09:45:48;6.95;;;3.30;;
36949;SDS011;22861;55.824;37.660;2022-07-03T09:51:18;6.75;;;3.60;;
36949;SDS011;22861;55.824;37.660;2022-07-03T09:56:20;6.55;;;3.70;;
36949;SDS011;22861;55.824;37.660;2022-07-03T09:59:00;5.40;;;4.05;;
36949;SDS011;22861;55.824;37.660;2022-07-03T10:01:36;4.40;;;3.15;;
36949;SDS011;22861;55.824;37.660;2022-07-03T10:04:15;4.85;;;3.10;;
36949;SDS011;22861;55.824;37.660;2022-07-03T10:11:39;4.60;;;3.20;;
36949;SDS011;22861;55.824;37.660;2022-07-03T10:14:06;4.70;;;3.50;;
36949;SDS011;22861;55.824;37.660;2022-07-03T10:16:34;5.15;;;4.05;;
36949;SDS011;22861;55.824;37.660;2022-07-03T10:19:00;10.52;;;4.60;;
36949;SDS011;22861;55.824;37.660;2022-07-03T10:21:29;6.38;;;4.13;;
36949;SDS011;22861;55.824;37.660;2022-07-03T10:23:55;4.57;;;3.55;;
36949;SDS011;22861;55.824;37.660;2022-07-03T10:26:22;6.25;;;4.03;;
36949;SDS011;22861;55.824;37.660;2022-07-03T10:28:48;7.03;;;4.13;;
36949;SDS011;22861;55.824;37.660;2022-07-03T10:31:16;7.10;;;4.45;;
36949;SDS011;22861;55.824;37.660;2022-07-03T10:33:42;4.53;;;3.40;;
36949;SDS011;22861;55.824;37.660;2022-07-03T10:36:09;4.78;;;4.20;;
36949;SDS011;22861;55.824;37.660;2022-07-03T10:38:39;11.35;;;3.95;;
36949;SDS011;22861;55.824;37.660;2022-07-03T10:44:06;6.05;;;3.70;;
36949;SDS011;22861;55.824;37.660;2022-07-03T10:46:51;5.38;;;3.80;;
36949;SDS011;22861;55.824;37.660;2022-07-03T10:49:16;4.95;;;3.75;;
36949;SDS011;22861;55.824;37.660;2022-07-03T11:25:57;4.90;;;3.75;;
36949;SDS011;22861;55.824;37.660;2022-07-03T11:38:48;4.80;;;3.50;;
36949;SDS011;22861;55.824;37.660;2022-07-03T11:44:03;6.18;;;3.55;;
36949;SDS011;22861;55.824;37.660;2022-07-03T11:46:33;5.22;;;3.45;;
36949;SDS011;22861;55.824;37.660;2022-07-03T11:49:19;5.57;;;3.47;;
36949;SDS011;22861;55.824;37.660;2022-07-03T11:51:57;4.30;;;3.22;;
36949;SDS011;22861;55.824;37.660;2022-07-03T11:54:24;7.03;;;3.60;;
36949;SDS011;22861;55.824;37.660;2022-07-03T11:56:50;5.47;;;2.88;;
36949;SDS011;22861;55.824;37.660;2022-07-03T11:59:16;6.95;;;3.05;;
36949;SDS011;22861;55.824;37.660;2022-07-03T12:01:42;4.88;;;2.88;;
36949;SDS011;22861;55.824;37.660;2022-07-03T12:06:34;5.90;;;3.10;;
36949;SDS011;22861;55.824;37.660;2022-07-03T12:09:01;4.53;;;2.90;;
36949;SDS011;22861;55.824;37.660;2022-07-03T12:11:27;4.97;;;3.20;;
36949;SDS011;22861;55.824;37.660;2022-07-03T12:13:53;5.22;;;3.17;;
36949;SDS011;22861;55.824;37.660;2022-07-03T12:16:19;6.75;;;2.85;;
36949;SDS011;22861;55.824;37.660;2022-07-03T12:18:55;4.57;;;2.75;;
36949;SDS011;22861;55.824;37.660;2022-07-03T12:21:22;6.10;;;2.85;;
36949;SDS011;22861;55.824;37.660;2022-07-03T12:29:00;6.25;;;2.58;;
36949;SDS011;22861;55.824;37.660;2022-07-03T12:31:27;4.93;;;2.53;;
36949;SDS011;22861;55.824;37.660;2022-07-03T12:36:23;5.93;;;2.40;;
36949;SDS011;22861;55.824;37.660;2022-07-03T12:38:48;5.80;;;2.55;;
36949;SDS011;22861;55.824;37.660;2022-07-03T12:41:16;7.75;;;2.25;;
36949;SDS011;22861;55.824;37.660;2022-07-03T12:43:44;3.17;;;2.10;;
36949;SDS011;22861;55.824;37.660;2022-07-03T12:46:18;4.72;;;2.60;;
36949;SDS011;22861;55.824;37.660;2022-07-03T12:48:58;4.80;;;2.25;;
36949;SDS011;22861;55.824;37.660;2022-07-03T12:54:12;3.80;;;2.45;;
36949;SDS011;22861;55.824;37.660;2022-07-03T13:00:04;7.88;;;2.30;;
36949;SDS011;22861;55.824;37.660;2022-07-03T13:02:32;5.70;;;1.98;;
36949;SDS011;22861;55.824;37.660;2022-07-03T13:04:59;5.68;;;2.40;;
36949;SDS011;22861;55.824;37.660;2022-07-03T13:07:31;5.10;;;2.50;;
36949;SDS011;22861;55.824;37.660;2022-07-03T13:10:00;5.50;;;2.63;;
36949;SDS011;22861;55.824;37.660;2022-07-03T13:12:28;5.15;;;2.30;;
36949;SDS011;22861;55.824;37.660;2022-07-03T13:14:57;3.65;;;2.45;;
36949;SDS011;22861;55.824;37.660;2022-07-03T13:17:49;3.72;;;2.38;;
36949;SDS011;22861;55.824;37.660;2022-07-03T13:20:18;3.60;;;2.13;;
36949;SDS011;22861;55.824;37.660;2022-07-03T13:22:48;3.33;;;2.25;;
36949;SDS011;22861;55.824;37.660;2022-07-03T13:25:14;5.18;;;2.08;;
36949;SDS011;22861;55.824;37.660;2022-07-03T13:27:39;6.55;;;2.40;;
36949;SDS011;22861;55.824;37.660;2022-07-03T13:30:05;5.53;;;2.70;;
36949;SDS011;22861;55.824;37.660;2022-07-03T13:32:31;4.32;;;2.67;;
36949;SDS011;22861;55.824;37.660;2022-07-03T13:34:56;7.78;;;2.50;;
36949;SDS011;22861;55.824;37.660;2022-07-03T13:37:22;5.68;;;2.85;;
36949;SDS011;22861;55.824;37.660;2022-07-03T13:39:47;5.25;;;2.40;;
36949;SDS011;22861;55.824;37.660;2022-07-03T13:42:13;4.38;;;2.70;;
36949;SDS011;22861;55.824;37.660;2022-07-03T13:44:39;5.97;;;2.70;;
36949;SDS011;22861;55.824;37.660;2022-07-03T13:47:04;5.85;;;2.72;;
36949;SDS011;22861;55.824;37.660;2022-07-03T13:49:31;4.97;;;2.65;;
36949;SDS011;22861;55.824;37.660;2022-07-03T13:51:57;7.25;;;2.65;;
36949;SDS011;22861;55.824;37.660;2022-07-03T13:54:23;3.83;;;2.75;;
36949;SDS011;22861;55.824;37.660;2022-07-03T13:56:48;6.75;;;2.72;;
36949;SDS011;22861;55.824;37.660;2022-07-03T13:59:15;3.70;;;2.42;;
36949;SDS011;22861;55.824;37.660;2022-07-03T14:01:40;8.65;;;2.40;;
36949;SDS011;22861;55.824;37.660;2022-07-03T14:04:06;4.57;;;3.10;;
36949;SDS011;22861;55.824;37.660;2022-07-03T14:06:31;6.10;;;2.50;;
36949;SDS011;22861;55.824;37.660;2022-07-03T14:08:57;5.00;;;2.70;;
36949;SDS011;22861;55.824;37.660;2022-07-03T14:11:22;3.05;;;2.30;;
36949;SDS011;22861;55.824;37.660;2022-07-03T14:13:48;5.18;;;2.50;;
36949;SDS011;22861;55.824;37.660;2022-07-03T14:16:13;7.38;;;2.78;;
36949;SDS011;22861;55.824;37.660;2022-07-03T14:18:39;5.53;;;2.53;;
36949;SDS011;22861;55.824;37.660;2022-07-03T14:21:04;3.90;;;2.05;;
36949;SDS011;22861;55.824;37.660;2022-07-03T14:23:33;5.38;;;2.58;;
36949;SDS011;22861;55.824;37.660;2022-07-03T14:25:58;4.93;;;2.20;;
36949;SDS011;22861;55.824;37.660;2022-07-03T14:28:24;3.22;;;2.20;;
36949;SDS011;22861;55.824;37.660;2022-07-03T14:31:09;4.05;;;2.25;;
36949;SDS011;22861;55.824;37.660;2022-07-03T14:33:50;3.80;;;2.00;;
36949;SDS011;22861;55.824;37.660;2022-07-03T14:36:16;3.13;;;2.20;;
36949;SDS011;22861;55.824;37.660;2022-07-03T14:38:42;4.28;;;2.22;;
36949;SDS011;22861;55.824;37.660;2022-07-03T14:41:08;9.35;;;2.10;;
36949;SDS011;22861;55.824;37.660;2022-07-03T14:43:34;2.80;;;2.15;;
36949;SDS011;22861;55.824;37.660;2022-07-03T14:45:59;4.57;;;2.13;;
36949;SDS011;22861;55.824;37.660;2022-07-03T14:48:25;3.78;;;2.20;;
36949;SDS011;22861;55.824;37.660;2022-07-03T14:50:51;4.60;;;2.00;;
36949;SDS011;22861;55.824;37.660;2022-07-03T14:53:17;3.70;;;1.98;;
36949;SDS011;22861;55.824;37.660;2022-07-03T14:55:44;5.75;;;2.00;;
36949;SDS011;22861;55.824;37.660;2022-07-03T14:58:13;4.35;;;1.88;;
36949;SDS011;22861;55.824;37.660;2022-07-03T15:00:42;7.93;;;2.22;;
36949;SDS011;22861;55.824;37.660;2022-07-03T15:03:16;6.18;;;2.13;;
36949;SDS011;22861;55.824;37.660;2022-07-03T15:05:44;5.03;;;1.70;;
36949;SDS011;22861;55.824;37.660;2022-07-03T15:08:56;3.53;;;1.48;;
36949;SDS011;22861;55.824;37.660;2022-07-03T15:11:18;2.63;;;1.80;;
36949;SDS011;22861;55.824;37.660;2022-07-03T15:14:04;2.55;;;1.55;;
36949;SDS011;22861;55.824;37.660;2022-07-03T15:16:31;3.70;;;1.60;;
36949;SDS011;22861;55.824;37.660;2022-07-03T15:19:01;5.03;;;1.90;;
36949;SDS011;22861;55.824;37.660;2022-07-03T15:21:30;4.68;;;1.52;;
36949;SDS011;22861;55.824;37.660;2022-07-03T15:24:01;3.22;;;2.10;;
36949;SDS011;22861;55.824;37.660;2022-07-03T15:26:28;3.10;;;1.50;;
36949;SDS011;22861;55.824;37.660;2022-07-03T15:28:56;3.67;;;1.83;;
36949;SDS011;22861;55.824;37.660;2022-07-03T15:31:24;5.57;;;1.70;;
36949;SDS011;22861;55.824;37.660;2022-07-03T15:33:51;2.08;;;1.67;;
36949;SDS011;22861;55.824;37.660;2022-07-03T15:36:17;2.90;;;1.90;;
36949;SDS011;22861;55.824;37.660;2022-07-03T15:38:48;2.67;;;1.83;;
36949;SDS011;22861;55.824;37.660;2022-07-03T15:41:25;4.82;;;1.90;;
36949;SDS011;22861;55.824;37.660;2022-07-03T15:49:25;3.30;;;2.00;;
36949;SDS011;22861;55.824;37.660;2022-07-03T16:00:12;4.00;;;1.70;;
36949;SDS011;22861;55.824;37.660;2022-07-03T16:02:47;2.70;;;1.73;;
36949;SDS011;22861;55.824;37.660;2022-07-03T16:05:24;3.65;;;1.73;;
36949;SDS011;22861;55.824;37.660;2022-07-03T16:07:52;4.18;;;2.08;;
36949;SDS011;22861;55.824;37.660;2022-07-03T16:10:18;3.00;;;1.98;;
36949;SDS011;22861;55.824;37.660;2022-07-03T16:12:45;4.55;;;1.90;;
36949;SDS011;22861;55.824;37.660;2022-07-03T16:15:13;2.83;;;1.80;;
36949;SDS011;22861;55.824;37.660;2022-07-03T16:17:38;9.10;;;1.90;;
36949;SDS011;22861;55.824;37.660;2022-07-03T16:20:05;4.53;;;1.80;;
36949;SDS011;22861;55.824;37.660;2022-07-03T16:22:32;3.17;;;1.80;;
36949;SDS011;22861;55.824;37.660;2022-07-03T16:24:59;8.77;;;2.10;;
36949;SDS011;22861;55.824;37.660;2022-07-03T16:27:26;3.65;;;1.88;;
36949;SDS011;22861;55.824;37.660;2022-07-03T16:29:53;6.50;;;1.90;;
36949;SDS011;22861;55.824;37.660;2022-07-03T16:32:20;4.50;;;1.88;;
36949;SDS011;22861;55.824;37.660;2022-07-03T16:34:52;3.10;;;1.70;;
36949;SDS011;22861;55.824;37.660;2022-07-03T16:37:23;3.50;;;1.67;;
36949;SDS011;22861;55.824;37.660;2022-07-03T16:39:55;3.90;;;2.08;;
36949;SDS011;22861;55.824;37.660;2022-07-03T16:42:25;4.55;;;1.80;;
36949;SDS011;22861;55.824;37.660;2022-07-03T16:44:54;3.58;;;1.98;;
36949;SDS011;22861;55.824;37.660;2022-07-03T16:47:27;4.57;;;1.98;;
36949;SDS011;22861;55.824;37.660;2022-07-03T16:49:54;4.97;;;2.15;;
36949;SDS011;22861;55.824;37.660;2022-07-03T16:52:22;4.00;;;1.90;;
36949;SDS011;22861;55.824;37.660;2022-07-03T16:54:49;5.30;;;2.35;;
36949;SDS011;22861;55.824;37.660;2022-07-03T16:57:16;3.80;;;2.40;;
36949;SDS011;22861;55.824;37.660;2022-07-03T16:59:42;4.10;;;2.47;;